createdAt,value
2022-11-27T00:01:21.587Z,76.75
2022-11-27T00:03:49.018Z,76.88
2022-11-27T00:06:17.793Z,69.75
2022-11-27T00:08:45.175Z,69.30
2022-11-27T00:11:18.297Z,71.22
2022-11-27T00:13:45.293Z,75.55
2022-11-27T00:16:13.254Z,69.90
2022-11-27T00:18:43.321Z,74.60
2022-11-27T00:21:19.150Z,69.25
2022-11-27T00:23:45.845Z,64.90
2022-11-27T00:26:12.858Z,69.15
2022-11-27T00:28:39.575Z,66.57
2022-11-27T00:31:09.066Z,63.53
2022-11-27T00:33:35.712Z,60.53
2022-11-27T00:36:06.444Z,62.90
2022-11-27T00:38:38.455Z,60.35
2022-11-27T00:41:17.793Z,74.68
2022-11-27T00:43:45.437Z,73.30
2022-11-27T00:46:16.924Z,71.22
2022-11-27T00:48:43.624Z,61.13
2022-11-27T00:51:14.083Z,61.65
2022-11-27T00:53:40.691Z,62.45
2022-11-27T00:56:08.176Z,66.97
2022-11-27T00:58:34.725Z,65.57
2022-11-27T01:01:03.816Z,65.75
2022-11-27T01:03:31.682Z,61.50
2022-11-27T01:06:06.062Z,62.20
2022-11-27T01:08:33.813Z,62.35
2022-11-27T01:11:00.777Z,58.25
2022-11-27T01:13:32.626Z,68.78
2022-11-27T01:16:06.290Z,66.03
2022-11-27T01:18:34.314Z,72.72
2022-11-27T01:21:00.784Z,58.40
2022-11-27T01:23:27.598Z,66.45
2022-11-27T01:25:54.639Z,61.88
2022-11-27T01:28:23.432Z,67.20
2022-11-27T01:30:50.950Z,63.55
2022-11-27T01:33:18.212Z,68.63
2022-11-27T01:35:55.078Z,63.53
2022-11-27T01:38:22.173Z,61.67
2022-11-27T01:40:48.809Z,66.30
2022-11-27T01:43:16.206Z,55.75
2022-11-27T01:45:45.256Z,49.65
2022-11-27T01:48:13.432Z,57.25
2022-11-27T01:50:40.550Z,45.05
2022-11-27T01:53:15.687Z,61.47
2022-11-27T01:55:54.996Z,55.65
2022-11-27T01:58:28.147Z,54.37
2022-11-27T02:00:54.885Z,57.38
2022-11-27T02:03:22.080Z,57.95
2022-11-27T02:05:48.631Z,58.00
2022-11-27T02:08:16.839Z,61.75
2022-11-27T02:11:07.823Z,55.72
2022-11-27T02:13:50.294Z,52.10
2022-11-27T02:16:19.722Z,53.50
2022-11-27T02:19:15.554Z,48.28
2022-11-27T02:22:02.286Z,55.08
2022-11-27T02:24:56.558Z,54.97
2022-11-27T02:27:41.459Z,61.20
2022-11-27T02:30:08.430Z,53.75
2022-11-27T02:32:37.809Z,56.90
2022-11-27T02:35:27.876Z,64.13
2022-11-27T02:38:00.928Z,59.33
2022-11-27T02:40:34.701Z,60.75
2022-11-27T02:43:08.916Z,61.75
2022-11-27T02:45:43.270Z,58.00
2022-11-27T02:48:12.192Z,56.85
2022-11-27T02:50:41.541Z,62.00
2022-11-27T02:53:12.681Z,47.60
2022-11-27T02:55:40.560Z,44.88
2022-11-27T02:58:11.898Z,56.33
2022-11-27T03:00:43.285Z,44.30
2022-11-27T03:03:13.103Z,45.28
2022-11-27T03:05:43.517Z,50.75
2022-11-27T03:08:18.995Z,51.08
2022-11-27T03:10:51.608Z,48.13
2022-11-27T03:13:18.509Z,48.85
2022-11-27T03:16:01.043Z,43.60
2022-11-27T03:18:42.887Z,63.95
2022-11-27T03:21:29.544Z,43.95
2022-11-27T03:23:57.520Z,43.22
2022-11-27T03:26:24.081Z,48.15
2022-11-27T03:28:51.824Z,44.72
2022-11-27T03:31:20.443Z,42.03
2022-11-27T03:33:47.270Z,52.30
2022-11-27T03:36:19.362Z,48.00
2022-11-27T03:38:48.902Z,47.78
2022-11-27T03:41:52.804Z,58.83
2022-11-27T03:44:35.706Z,49.53
2022-11-27T03:47:11.207Z,44.90
2022-11-27T03:49:57.856Z,50.05
2022-11-27T03:52:32.846Z,44.60
2022-11-27T03:55:15.120Z,44.00
2022-11-27T03:58:19.180Z,48.28
2022-11-27T04:00:49.125Z,53.28
2022-11-27T04:03:24.076Z,43.97
2022-11-27T04:05:50.796Z,50.90
2022-11-27T04:08:17.605Z,59.88
2022-11-27T04:10:44.216Z,58.55
2022-11-27T04:13:10.851Z,62.33
2022-11-27T04:15:37.274Z,59.90
2022-11-27T04:18:03.827Z,60.88
2022-11-27T04:20:30.419Z,59.15
2022-11-27T04:22:56.841Z,60.45
2022-11-27T04:25:23.503Z,79.38
2022-11-27T04:27:50.488Z,59.45
2022-11-27T04:30:17.832Z,54.92
2022-11-27T04:32:44.253Z,60.97
2022-11-27T04:35:11.433Z,65.57
2022-11-27T04:37:37.832Z,66.72
2022-11-27T04:40:05.436Z,65.97
2022-11-27T04:42:31.891Z,63.90
2022-11-27T04:44:58.425Z,66.18
2022-11-27T04:47:24.980Z,61.45
2022-11-27T04:49:51.381Z,65.43
2022-11-27T04:52:17.881Z,72.03
2022-11-27T04:54:44.296Z,75.88
2022-11-27T04:57:10.764Z,74.13
2022-11-27T04:59:37.993Z,69.30
2022-11-27T05:02:04.750Z,63.17
2022-11-27T05:04:31.201Z,68.82
2022-11-27T05:06:57.647Z,80.10
2022-11-27T05:09:24.138Z,72.75
2022-11-27T05:11:50.656Z,73.93
2022-11-27T05:14:18.028Z,66.03
2022-11-27T05:16:47.162Z,76.05
2022-11-27T05:19:14.366Z,80.40
2022-11-27T05:21:41.777Z,86.57
2022-11-27T05:24:11.170Z,79.57
2022-11-27T05:26:39.571Z,106.07
2022-11-27T05:29:07.630Z,81.78
2022-11-27T05:31:34.630Z,90.28
2022-11-27T05:34:01.494Z,78.68
2022-11-27T05:36:28.546Z,84.10
2022-11-27T05:38:54.985Z,76.32
2022-11-27T05:41:21.611Z,78.53
2022-11-27T05:43:48.212Z,86.32
2022-11-27T05:46:19.925Z,92.60
2022-11-27T05:48:46.435Z,89.55
2022-11-27T05:51:13.573Z,86.85
2022-11-27T05:53:40.132Z,85.20
2022-11-27T05:56:15.376Z,88.07
2022-11-27T05:58:43.687Z,101.40
2022-11-27T06:01:12.517Z,96.53
2022-11-27T06:03:39.186Z,88.82
2022-11-27T06:06:09.953Z,99.82
2022-11-27T06:08:37.642Z,103.70
2022-11-27T06:11:15.802Z,89.90
2022-11-27T06:13:42.833Z,97.05
2022-11-27T06:16:13.931Z,90.95
2022-11-27T06:18:43.378Z,106.60
2022-11-27T06:21:14.676Z,91.78
2022-11-27T06:23:42.718Z,101.28
2022-11-27T06:26:17.336Z,99.43
2022-11-27T06:28:44.737Z,91.15
2022-11-27T06:31:17.875Z,94.28
2022-11-27T06:33:46.141Z,89.18
2022-11-27T06:36:12.700Z,90.03
2022-11-27T06:38:39.322Z,92.93
2022-11-27T06:41:09.193Z,81.45
2022-11-27T06:43:36.407Z,90.88
2022-11-27T06:46:04.524Z,97.78
2022-11-27T06:48:32.731Z,90.25
2022-11-27T06:51:04.658Z,89.60
2022-11-27T06:53:34.321Z,91.75
2022-11-27T06:56:06.645Z,91.53
2022-11-27T06:58:33.088Z,97.13
2022-11-27T07:01:02.105Z,92.85
2022-11-27T07:03:28.812Z,100.28
2022-11-27T07:05:58.047Z,91.70
2022-11-27T07:08:24.574Z,87.43
2022-11-27T07:10:51.032Z,86.97
2022-11-27T07:13:17.447Z,84.28
2022-11-27T07:15:44.159Z,84.93
2022-11-27T07:18:11.399Z,87.90
2022-11-27T07:20:37.874Z,76.85
2022-11-27T07:23:04.324Z,83.00
2022-11-27T07:25:30.831Z,84.13
2022-11-27T07:27:57.254Z,82.30
2022-11-27T07:30:23.784Z,93.80
2022-11-27T07:32:50.177Z,84.45
2022-11-27T07:35:16.715Z,83.03
2022-11-27T07:37:43.130Z,83.95
2022-11-27T07:40:09.785Z,86.72
2022-11-27T07:42:41.481Z,81.05
2022-11-27T07:45:08.911Z,83.80
2022-11-27T07:47:35.367Z,90.43
2022-11-27T07:50:01.920Z,88.18
2022-11-27T07:52:28.346Z,87.88
2022-11-27T07:54:54.935Z,84.07
2022-11-27T07:57:21.363Z,95.50
2022-11-27T07:59:48.022Z,86.93
2022-11-27T08:02:14.945Z,93.50
2022-11-27T08:04:41.769Z,94.75
2022-11-27T08:07:08.651Z,89.80
2022-11-27T08:09:35.234Z,93.53
2022-11-27T08:12:01.693Z,86.55
2022-11-27T08:14:28.159Z,87.03
2022-11-27T08:16:54.812Z,94.13
2022-11-27T08:19:21.684Z,88.20
2022-11-27T08:21:48.158Z,98.25
2022-11-27T08:24:14.608Z,81.15
2022-11-27T08:26:41.051Z,91.40
2022-11-27T08:29:07.694Z,91.30
2022-11-27T08:31:34.546Z,92.10
2022-11-27T08:34:02.190Z,82.97
2022-11-27T08:36:28.762Z,85.40
2022-11-27T08:38:55.988Z,93.32
2022-11-27T08:41:22.493Z,84.88
2022-11-27T08:43:49.252Z,87.28
2022-11-27T08:46:15.985Z,80.20
2022-11-27T08:48:42.486Z,79.22
2022-11-27T08:51:12.382Z,83.82
2022-11-27T08:53:39.209Z,83.25
2022-11-27T08:56:11.740Z,72.28
2022-11-27T08:58:38.265Z,71.13
2022-11-27T09:01:15.583Z,74.43
2022-11-27T09:03:42.199Z,72.60
2022-11-27T09:06:10.821Z,70.25
2022-11-27T09:08:39.070Z,74.85
2022-11-27T09:11:06.326Z,70.60
2022-11-27T09:13:36.658Z,68.35
2022-11-27T09:16:08.648Z,70.00
2022-11-27T09:18:35.279Z,73.95
2022-11-27T09:21:04.732Z,72.97
2022-11-27T09:23:31.785Z,72.57
2022-11-27T09:26:00.139Z,68.30
2022-11-27T09:28:31.407Z,67.90
2022-11-27T09:31:00.644Z,77.88
2022-11-27T09:33:29.310Z,66.78
2022-11-27T09:35:55.949Z,70.88
2022-11-27T09:38:23.792Z,68.97
2022-11-27T09:40:52.251Z,68.93
2022-11-27T09:43:28.448Z,77.80
2022-11-27T09:46:01.384Z,62.60
2022-11-27T09:48:35.935Z,70.60
2022-11-27T09:51:10.006Z,69.25
2022-11-27T09:53:55.890Z,64.65
2022-11-27T09:56:23.029Z,66.38
2022-11-27T09:58:57.324Z,60.15
2022-11-27T10:01:42.082Z,56.75
2022-11-27T10:04:13.863Z,64.53
2022-11-27T10:06:52.315Z,56.90
2022-11-27T10:10:00.109Z,64.60
2022-11-27T10:13:04.844Z,55.97
2022-11-27T10:15:46.524Z,55.95
2022-11-27T10:18:38.898Z,46.45
2022-11-27T10:21:37.271Z,57.55
2022-11-27T10:24:25.692Z,50.47
2022-11-27T10:26:58.022Z,57.13
2022-11-27T10:29:47.223Z,50.13
2022-11-27T10:32:47.231Z,52.63
2022-11-27T10:35:13.651Z,49.25
2022-11-27T10:37:47.121Z,55.22
2022-11-27T10:40:13.708Z,47.72
2022-11-27T10:43:15.250Z,47.78
2022-11-27T10:45:46.284Z,49.40
2022-11-27T10:48:14.376Z,49.67
2022-11-27T10:50:42.425Z,50.65
2022-11-27T10:53:14.814Z,51.05
2022-11-27T10:56:05.965Z,45.47
2022-11-27T10:58:42.680Z,50.67
2022-11-27T11:01:11.758Z,49.70
2022-11-27T11:03:38.321Z,46.13
2022-11-27T11:06:20.669Z,43.15
2022-11-27T11:08:48.097Z,52.42
2022-11-27T11:11:25.819Z,39.60
2022-11-27T11:13:52.682Z,43.00
2022-11-27T11:16:29.430Z,45.80
2022-11-27T11:18:58.787Z,45.53
2022-11-27T11:21:29.748Z,42.53
2022-11-27T11:23:59.947Z,47.70
2022-11-27T11:26:31.633Z,46.05
2022-11-27T11:29:02.316Z,35.53
2022-11-27T11:31:36.880Z,43.85
2022-11-27T11:34:12.580Z,36.63
2022-11-27T11:36:38.985Z,37.65
2022-11-27T11:39:05.467Z,36.08
2022-11-27T11:41:38.711Z,39.22
2022-11-27T11:44:05.377Z,36.40
2022-11-27T11:46:33.741Z,36.03
2022-11-27T11:49:03.244Z,39.13
2022-11-27T11:51:32.881Z,32.80
2022-11-27T11:54:34.290Z,32.70
2022-11-27T11:57:03.083Z,31.20
2022-11-27T11:59:55.056Z,38.95
2022-11-27T12:02:53.454Z,35.47
2022-11-27T12:05:41.222Z,40.50
2022-11-27T12:08:29.458Z,32.38
2022-11-27T12:11:18.378Z,27.08
2022-11-27T12:14:08.110Z,29.13
2022-11-27T12:16:49.241Z,37.13
2022-11-27T12:19:58.031Z,28.10
2022-11-27T12:23:06.023Z,26.73
2022-11-27T12:26:13.880Z,27.70
2022-11-27T12:28:57.503Z,26.40
2022-11-27T12:31:25.649Z,22.92
2022-11-27T12:34:07.020Z,28.98
2022-11-27T12:36:39.925Z,24.15
2022-11-27T12:39:32.537Z,26.48
2022-11-27T12:42:04.269Z,21.55
2022-11-27T12:45:14.632Z,28.63
2022-11-27T12:50:25.784Z,24.83
2022-11-27T12:53:27.389Z,28.63
2022-11-27T12:56:29.715Z,23.30
2022-11-27T12:59:29.879Z,21.92
2022-11-27T13:02:13.346Z,24.00
2022-11-27T13:04:47.068Z,22.33
2022-11-27T13:07:59.931Z,21.83
2022-11-27T13:10:41.001Z,23.88
2022-11-27T13:13:19.474Z,23.58
2022-11-27T13:15:52.252Z,28.42
2022-11-27T13:18:36.693Z,30.65
2022-11-27T13:21:10.680Z,22.20
2022-11-27T13:23:37.249Z,25.73
2022-11-27T13:26:07.241Z,21.35
2022-11-27T13:28:47.477Z,23.98
2022-11-27T13:33:59.626Z,20.80
2022-11-27T13:36:38.895Z,22.70
2022-11-27T13:39:06.360Z,26.90
2022-11-27T13:41:34.745Z,24.52
2022-11-27T13:44:02.604Z,24.50
2022-11-27T13:46:31.742Z,22.73
2022-11-27T13:49:02.763Z,24.27
2022-11-27T13:51:35.191Z,22.50
2022-11-27T13:54:10.784Z,22.98
2022-11-27T13:56:37.841Z,22.38
2022-11-27T13:59:23.834Z,24.33
2022-11-27T14:02:09.078Z,27.48
2022-11-27T14:04:50.624Z,23.45
2022-11-27T14:07:21.404Z,24.20
2022-11-27T14:09:56.374Z,26.33
2022-11-27T14:12:28.027Z,21.38
2022-11-27T14:15:17.469Z,21.50
2022-11-27T14:17:46.326Z,21.67
2022-11-27T14:20:15.873Z,32.50
2022-11-27T14:23:10.577Z,25.45
2022-11-27T14:25:38.901Z,20.40
2022-11-27T14:28:26.255Z,26.50
2022-11-27T14:31:02.343Z,21.73
2022-11-27T14:33:33.177Z,21.40
2022-11-27T14:36:07.466Z,22.75
2022-11-27T14:38:35.350Z,34.30
2022-11-27T14:41:22.706Z,28.00
2022-11-27T14:44:14.711Z,30.95
2022-11-27T14:46:41.760Z,21.73
2022-11-27T14:49:18.436Z,21.23
2022-11-27T14:51:45.616Z,24.45
2022-11-27T14:54:17.034Z,25.25
2022-11-27T14:56:44.485Z,21.27
2022-11-27T14:59:16.227Z,24.33
2022-11-27T15:01:43.053Z,22.70
2022-11-27T15:04:34.740Z,25.38
2022-11-27T15:07:05.164Z,20.92
2022-11-27T15:09:34.234Z,25.33
2022-11-27T15:12:34.569Z,22.27
2022-11-27T15:18:01.654Z,20.50
2022-11-27T15:20:37.229Z,20.77
2022-11-27T15:23:04.632Z,20.58
2022-11-27T15:25:38.740Z,23.63
2022-11-27T15:28:23.527Z,23.73
2022-11-27T15:30:50.358Z,23.05
2022-11-27T15:33:37.029Z,24.88
2022-11-27T15:36:21.919Z,23.45
2022-11-27T15:38:51.139Z,25.98
2022-11-27T15:41:26.510Z,28.98
2022-11-27T15:43:54.149Z,25.02
2022-11-27T15:46:34.323Z,24.63
2022-11-27T15:49:00.716Z,20.55
2022-11-27T15:51:27.172Z,26.80
2022-11-27T15:53:53.572Z,25.95
2022-11-27T15:56:20.730Z,27.67
2022-11-27T15:58:47.248Z,26.27
2022-11-27T16:01:13.708Z,23.27
2022-11-27T16:03:40.703Z,25.60
2022-11-27T16:06:08.562Z,21.67
2022-11-27T16:08:35.165Z,25.00
2022-11-27T16:11:03.587Z,27.40
2022-11-27T16:13:30.088Z,23.35
2022-11-27T16:16:02.007Z,23.90
2022-11-27T16:18:28.885Z,35.58
2022-11-27T16:20:55.715Z,27.50
2022-11-27T16:23:22.164Z,23.52
2022-11-27T16:25:48.643Z,26.70
2022-11-27T16:28:15.161Z,26.58
2022-11-27T16:30:41.796Z,25.08
2022-11-27T16:33:08.265Z,26.23
2022-11-27T16:35:36.435Z,25.33
2022-11-27T16:38:02.924Z,29.60
2022-11-27T16:40:29.596Z,27.02
2022-11-27T16:42:56.039Z,26.98
2022-11-27T16:45:22.535Z,28.48
2022-11-27T16:47:49.141Z,27.05
2022-11-27T16:50:15.658Z,27.50
2022-11-27T16:52:42.118Z,25.33
2022-11-27T16:55:08.949Z,24.75
2022-11-27T16:57:35.371Z,32.92
2022-11-27T17:00:02.198Z,25.33
2022-11-27T17:02:28.853Z,25.90
2022-11-27T17:04:55.975Z,31.73
2022-11-27T17:07:22.489Z,28.15
2022-11-27T17:09:49.221Z,27.40
2022-11-27T17:12:15.969Z,28.80
2022-11-27T17:14:43.770Z,27.05
2022-11-27T17:17:12.966Z,31.30
2022-11-27T17:19:39.966Z,22.95
2022-11-27T17:22:06.784Z,27.90
2022-11-27T17:24:35.759Z,33.58
2022-11-27T17:27:02.747Z,22.05
2022-11-27T17:29:33.466Z,23.63
2022-11-27T17:32:00.515Z,29.15
2022-11-27T17:34:27.049Z,36.30
2022-11-27T17:36:57.312Z,29.98
2022-11-27T17:41:50.147Z,33.30
2022-11-27T17:44:16.549Z,35.10
2022-11-27T17:46:48.029Z,33.20
2022-11-27T17:49:14.442Z,31.38
2022-11-27T17:51:41.314Z,27.30
2022-11-27T17:54:07.793Z,28.50
2022-11-27T17:56:34.932Z,26.30
2022-11-27T17:59:01.855Z,33.00
2022-11-27T18:01:29.649Z,29.92
2022-11-27T18:03:59.770Z,36.33
2022-11-27T18:06:26.663Z,32.78
2022-11-27T18:08:55.193Z,30.67
2022-11-27T18:11:23.481Z,29.92
2022-11-27T18:13:50.492Z,27.98
2022-11-27T18:16:19.788Z,26.63
2022-11-27T18:18:47.334Z,32.33
2022-11-27T18:21:18.741Z,27.90
2022-11-27T18:24:20.659Z,33.75
2022-11-27T18:27:00.566Z,29.48
2022-11-27T18:29:21.760Z,31.05
2022-11-27T18:31:49.297Z,31.52
2022-11-27T18:34:15.757Z,29.55
2022-11-27T18:36:42.165Z,33.55
2022-11-27T18:39:08.557Z,34.70
2022-11-27T18:41:35.102Z,31.77
2022-11-27T18:44:01.712Z,35.20
2022-11-27T18:46:28.361Z,30.55
2022-11-27T18:48:54.922Z,38.35
2022-11-27T18:51:23.917Z,39.45
2022-11-27T18:53:51.459Z,40.28
2022-11-27T18:56:29.330Z,36.88
2022-11-27T18:58:56.500Z,33.17
2022-11-27T19:01:28.663Z,31.45
2022-11-27T19:03:56.240Z,31.27
2022-11-27T19:06:24.921Z,33.40
2022-11-27T19:08:52.182Z,35.95
2022-11-27T19:11:22.306Z,36.33
2022-11-27T19:13:52.193Z,39.97
2022-11-27T19:16:25.036Z,38.42
2022-11-27T19:18:52.450Z,33.75
2022-11-27T19:21:21.853Z,31.00
2022-11-27T19:23:49.557Z,35.97
2022-11-27T19:26:18.925Z,31.33
2022-11-27T19:28:48.999Z,31.63
2022-11-27T19:31:16.330Z,40.00
2022-11-27T19:33:43.580Z,37.60
2022-11-27T19:36:13.525Z,36.10
2022-11-27T19:38:42.347Z,36.40
2022-11-27T19:41:14.311Z,37.53
2022-11-27T19:43:41.018Z,37.53
2022-11-27T19:46:27.262Z,33.25
2022-11-27T19:48:58.649Z,33.35
2022-11-27T19:51:27.149Z,33.97
2022-11-27T19:53:53.970Z,38.10
2022-11-27T19:56:20.695Z,34.45
2022-11-27T19:58:47.208Z,34.40
2022-11-27T20:01:16.413Z,36.88
2022-11-27T20:03:43.614Z,32.95
2022-11-27T20:06:15.388Z,35.90
2022-11-27T20:08:42.960Z,40.70
2022-11-27T20:11:12.239Z,40.83
2022-11-27T20:13:38.710Z,44.20
2022-11-27T20:16:14.662Z,34.38
2022-11-27T20:18:41.643Z,37.30
2022-11-27T20:21:17.078Z,38.60
2022-11-27T20:23:44.749Z,41.17
2022-11-27T20:26:14.893Z,40.90
2022-11-27T20:28:41.816Z,36.05
2022-11-27T20:31:17.246Z,33.72
2022-11-27T20:33:43.757Z,33.15
2022-11-27T20:36:12.284Z,36.88
2022-11-27T20:38:39.487Z,36.13
2022-11-27T20:41:12.135Z,40.40
2022-11-27T20:43:39.113Z,37.33
2022-11-27T20:46:07.586Z,41.35
2022-11-27T20:48:34.122Z,36.70
2022-11-27T20:51:13.697Z,30.73
2022-11-27T20:53:40.907Z,34.78
2022-11-27T20:56:09.115Z,36.00
2022-11-27T20:58:37.031Z,37.28
2022-11-27T21:01:13.914Z,37.22
2022-11-27T21:03:41.003Z,39.17
2022-11-27T21:06:07.733Z,34.90
2022-11-27T21:08:34.311Z,35.85
2022-11-27T21:11:09.699Z,37.38
2022-11-27T21:13:36.511Z,38.70
2022-11-27T21:16:03.033Z,31.52
2022-11-27T21:18:29.499Z,34.97
2022-11-27T21:20:55.892Z,32.35
2022-11-27T21:23:22.331Z,30.70
2022-11-27T21:25:48.869Z,29.48
2022-11-27T21:28:15.261Z,31.20
2022-11-27T21:30:41.652Z,32.72
2022-11-27T21:33:08.078Z,35.97
2022-11-27T21:35:39.103Z,34.72
2022-11-27T21:38:07.994Z,36.97
2022-11-27T21:40:36.741Z,32.15
2022-11-27T21:43:03.272Z,30.35
2022-11-27T21:45:29.709Z,33.33
2022-11-27T21:47:56.289Z,34.38
2022-11-27T21:50:22.721Z,31.88
2022-11-27T21:52:49.155Z,32.90
2022-11-27T21:55:15.603Z,28.10
2022-11-27T21:57:42.049Z,33.95
2022-11-27T22:00:09.005Z,37.95
2022-11-27T22:02:35.514Z,31.55
2022-11-27T22:05:01.987Z,34.42
2022-11-27T22:07:28.467Z,29.10
2022-11-27T22:09:55.192Z,34.97
2022-11-27T22:12:21.629Z,35.60
2022-11-27T22:14:50.201Z,30.73
2022-11-27T22:17:17.083Z,30.17
2022-11-27T22:19:43.552Z,31.33
2022-11-27T22:22:10.052Z,32.88
2022-11-27T22:24:36.751Z,35.38
2022-11-27T22:27:03.261Z,31.35
2022-11-27T22:29:29.760Z,40.95
2022-11-27T22:31:56.203Z,30.73
2022-11-27T22:34:22.644Z,30.25
2022-11-27T22:36:49.105Z,34.50
2022-11-27T22:39:15.626Z,34.03
2022-11-27T22:41:42.816Z,31.40
2022-11-27T22:44:14.031Z,33.50
2022-11-27T22:46:42.304Z,35.08
2022-11-27T22:49:12.334Z,37.65
2022-11-27T22:51:39.255Z,37.20
2022-11-27T22:54:07.854Z,33.47
2022-11-27T22:56:34.263Z,32.95
2022-11-27T22:59:30.505Z,40.13
2022-11-27T23:01:48.521Z,32.47
2022-11-27T23:04:15.475Z,33.35
2022-11-27T23:06:41.951Z,34.67
2022-11-27T23:09:09.656Z,37.13
2022-11-27T23:11:36.071Z,41.53
2022-11-27T23:14:03.317Z,31.75
2022-11-27T23:16:29.824Z,33.50
2022-11-27T23:18:56.281Z,33.97
2022-11-27T23:21:24.705Z,33.78
2022-11-27T23:23:51.778Z,30.25
2022-11-27T23:26:20.365Z,32.22
2022-11-27T23:28:48.981Z,31.02
2022-11-27T23:31:34.078Z,30.70
2022-11-27T23:34:03.079Z,30.95
2022-11-27T23:36:31.353Z,30.58
2022-11-27T23:39:01.958Z,31.00
2022-11-27T23:41:29.191Z,27.73
2022-11-27T23:43:56.285Z,29.80
2022-11-27T23:46:28.316Z,30.25
2022-11-27T23:48:56.776Z,27.65
2022-11-27T23:51:26.197Z,33.85
2022-11-27T23:53:53.616Z,28.85
2022-11-27T23:56:23.165Z,30.42
2022-11-27T23:58:49.974Z,34.90
